createdAt,value
2023-01-11T00:01:21.060Z,2.43
2023-01-11T00:03:49.666Z,3.20
2023-01-11T00:06:18.225Z,2.27
2023-01-11T00:08:47.306Z,1.93
2023-01-11T00:11:17.160Z,1.40
2023-01-11T00:13:47.100Z,2.00
2023-01-11T00:16:15.718Z,1.93
2023-01-11T00:18:44.584Z,2.73
2023-01-11T00:21:13.100Z,2.37
2023-01-11T00:23:41.637Z,2.53
2023-01-11T00:26:13.512Z,4.13
2023-01-11T00:28:42.064Z,2.80
2023-01-11T00:31:12.081Z,3.20
2023-01-11T00:33:40.666Z,3.13
2023-01-11T00:36:09.961Z,3.13
2023-01-11T00:38:54.082Z,3.47
2023-01-11T00:41:41.183Z,3.50
2023-01-11T00:44:28.209Z,4.30
2023-01-11T00:47:15.952Z,7.40
2023-01-11T00:49:45.153Z,5.90
2023-01-11T00:52:13.952Z,6.30
2023-01-11T00:54:43.279Z,6.50
2023-01-11T00:57:11.894Z,5.23
2023-01-11T00:59:40.705Z,5.87
2023-01-11T01:02:11.637Z,3.73
2023-01-11T01:04:40.307Z,4.83
2023-01-11T01:07:09.215Z,3.60
2023-01-11T01:09:37.926Z,6.40
2023-01-11T01:12:07.059Z,5.93
2023-01-11T01:14:34.709Z,5.80
2023-01-11T01:17:07.214Z,6.00
2023-01-11T01:19:38.966Z,8.00
2023-01-11T01:22:07.998Z,8.57
2023-01-11T01:24:36.670Z,6.90
2023-01-11T01:27:05.209Z,4.53
2023-01-11T01:29:33.815Z,4.67
2023-01-11T01:32:02.373Z,3.03
2023-01-11T01:34:31.377Z,4.43
2023-01-11T01:37:01.666Z,3.27
2023-01-11T01:39:30.265Z,2.53
2023-01-11T01:41:58.836Z,2.90
2023-01-11T01:44:55.568Z,3.03
2023-01-11T01:47:26.256Z,3.00
2023-01-11T01:49:55.010Z,3.07
2023-01-11T01:52:29.144Z,2.20
2023-01-11T01:55:00.438Z,2.17
2023-01-11T01:57:31.592Z,2.10
2023-01-11T02:00:03.747Z,2.27
2023-01-11T02:02:32.390Z,2.00
2023-01-11T02:05:01.271Z,1.77
2023-01-11T02:07:34.569Z,1.37
2023-01-11T02:10:06.632Z,2.27
2023-01-11T02:12:38.808Z,1.60
2023-01-11T02:15:08.452Z,3.37
2023-01-11T02:17:36.980Z,2.47
2023-01-11T02:20:33.953Z,2.00
2023-01-11T02:23:43.145Z,1.90
2023-01-11T02:26:41.905Z,1.83
2023-01-11T02:29:15.839Z,2.13
2023-01-11T02:31:47.260Z,2.47
2023-01-11T02:34:27.970Z,2.50
2023-01-11T02:37:05.757Z,2.43
2023-01-11T02:39:46.178Z,2.60
2023-01-11T02:42:36.742Z,3.03
2023-01-11T02:45:12.620Z,2.13
2023-01-11T02:47:48.056Z,2.87
2023-01-11T02:50:21.776Z,2.87
2023-01-11T02:52:55.615Z,1.77
2023-01-11T02:55:26.785Z,3.20
2023-01-11T02:57:57.679Z,1.90
2023-01-11T03:00:27.864Z,3.07
2023-01-11T03:03:13.679Z,1.87
2023-01-11T03:05:46.544Z,2.60
2023-01-11T03:08:44.645Z,1.77
2023-01-11T03:11:36.752Z,2.33
2023-01-11T03:14:08.139Z,2.40
2023-01-11T03:16:44.561Z,2.00
2023-01-11T03:19:21.785Z,2.47
2023-01-11T03:21:57.967Z,1.83
2023-01-11T03:24:32.344Z,2.53
2023-01-11T03:27:09.880Z,2.30
2023-01-11T03:29:42.976Z,3.57
2023-01-11T03:32:28.106Z,13.13
2023-01-11T03:35:06.092Z,17.37
2023-01-11T03:37:37.260Z,11.53
2023-01-11T03:40:09.215Z,5.67
2023-01-11T03:43:00.300Z,4.73
2023-01-11T03:45:29.570Z,2.63
2023-01-11T03:48:01.185Z,2.43
2023-01-11T03:50:30.640Z,1.63
2023-01-11T03:52:59.972Z,1.87
2023-01-11T03:55:30.551Z,2.13
2023-01-11T03:57:59.732Z,2.07
2023-01-11T04:00:29.649Z,2.83
2023-01-11T04:03:01.645Z,2.13
2023-01-11T04:05:30.460Z,1.47
2023-01-11T04:07:59.194Z,1.37
2023-01-11T04:10:27.713Z,2.03
2023-01-11T04:12:56.236Z,1.83
2023-01-11T04:15:24.772Z,1.93
2023-01-11T04:17:53.277Z,1.90
2023-01-11T04:20:23.265Z,2.40
2023-01-11T04:22:51.706Z,2.60
2023-01-11T04:25:20.314Z,3.37
2023-01-11T04:27:48.757Z,2.17
2023-01-11T04:30:17.578Z,2.00
2023-01-11T04:32:46.113Z,2.37
2023-01-11T04:35:14.757Z,2.73
2023-01-11T04:37:44.661Z,2.83
2023-01-11T04:40:13.767Z,2.83
2023-01-11T04:42:41.397Z,1.93
2023-01-11T04:45:11.096Z,2.67
2023-01-11T04:47:39.790Z,2.20
2023-01-11T04:50:09.685Z,2.20
2023-01-11T04:52:40.630Z,3.10
2023-01-11T04:55:11.023Z,3.60
2023-01-11T04:57:40.029Z,5.60
2023-01-11T05:00:11.034Z,4.10
2023-01-11T05:02:39.631Z,6.30
2023-01-11T05:05:08.852Z,7.67
2023-01-11T05:07:37.558Z,8.23
2023-01-11T05:10:06.818Z,8.53
2023-01-11T05:12:36.882Z,8.03
2023-01-11T05:15:06.201Z,6.67
2023-01-11T05:17:34.719Z,7.27
2023-01-11T05:20:04.683Z,8.13
2023-01-11T05:22:33.197Z,8.27
2023-01-11T05:25:01.707Z,8.23
2023-01-11T05:27:30.245Z,6.47
2023-01-11T05:30:00.132Z,6.37
2023-01-11T05:32:28.627Z,5.93
2023-01-11T05:34:57.071Z,5.30
2023-01-11T05:37:25.881Z,5.57
2023-01-11T05:39:54.436Z,6.43
2023-01-11T05:42:22.995Z,5.73
2023-01-11T05:45:08.999Z,9.37
2023-01-11T05:47:39.070Z,8.73
2023-01-11T05:50:08.074Z,10.63
2023-01-11T05:52:38.783Z,7.60
2023-01-11T05:55:25.500Z,4.77
2023-01-11T05:57:58.227Z,5.40
2023-01-11T06:00:26.975Z,7.57
2023-01-11T06:02:57.004Z,11.10
2023-01-11T06:05:25.693Z,7.93
2023-01-11T06:07:55.672Z,4.40
2023-01-11T06:10:24.260Z,7.17
2023-01-11T06:13:16.034Z,7.97
2023-01-11T06:15:44.589Z,9.53
2023-01-11T06:18:14.513Z,8.20
2023-01-11T06:20:43.235Z,10.67
2023-01-11T06:23:11.757Z,8.83
2023-01-11T06:25:40.216Z,8.90
2023-01-11T06:28:08.726Z,7.07
2023-01-11T06:30:37.394Z,10.77
2023-01-11T06:33:06.971Z,8.40
2023-01-11T06:35:39.344Z,7.87
2023-01-11T06:38:08.461Z,10.07
2023-01-11T06:40:36.993Z,13.17
2023-01-11T06:43:05.738Z,13.80
2023-01-11T06:45:34.317Z,15.70
2023-01-11T06:48:02.868Z,13.87
2023-01-11T06:50:31.416Z,11.03
2023-01-11T06:53:02.965Z,12.07
2023-01-11T06:55:32.093Z,9.47
2023-01-11T06:58:00.655Z,11.77
2023-01-11T07:00:29.347Z,8.97
2023-01-11T07:02:58.058Z,10.80
2023-01-11T07:05:26.737Z,16.47
2023-01-11T07:07:55.347Z,18.08
2023-01-11T07:10:25.336Z,15.73
2023-01-11T07:12:53.991Z,11.83
2023-01-11T07:15:22.930Z,9.50
2023-01-11T07:17:55.383Z,10.37
2023-01-11T07:20:24.351Z,39.57
2023-01-11T07:22:53.014Z,24.43
2023-01-11T07:25:21.608Z,14.93
2023-01-11T07:27:51.509Z,18.50
2023-01-11T07:30:20.154Z,14.10
2023-01-11T07:32:48.644Z,21.57
2023-01-11T07:35:17.294Z,24.33
2023-01-11T07:37:46.620Z,17.77
2023-01-11T07:40:16.427Z,11.53
2023-01-11T07:43:06.212Z,14.13
2023-01-11T07:45:45.395Z,13.07
2023-01-11T07:48:15.597Z,14.60
2023-01-11T07:50:45.352Z,12.60
2023-01-11T07:53:14.531Z,12.33
2023-01-11T07:55:43.585Z,17.03
2023-01-11T07:58:13.633Z,18.63
2023-01-11T08:00:43.691Z,16.37
2023-01-11T08:03:12.306Z,22.10
2023-01-11T08:05:41.336Z,17.60
2023-01-11T08:08:09.928Z,16.03
2023-01-11T08:10:40.368Z,17.17
2023-01-11T08:13:31.095Z,19.23
2023-01-11T08:16:01.509Z,17.10
2023-01-11T08:18:30.136Z,14.77
2023-01-11T08:20:58.673Z,19.23
2023-01-11T08:23:27.668Z,20.60
2023-01-11T08:25:58.060Z,21.23
2023-01-11T08:28:26.610Z,16.53
2023-01-11T08:30:55.217Z,16.63
2023-01-11T08:33:25.204Z,14.07
2023-01-11T08:35:53.762Z,19.93
2023-01-11T08:38:22.292Z,21.30
2023-01-11T08:40:50.759Z,20.27
2023-01-11T08:43:19.265Z,17.73
2023-01-11T08:45:47.838Z,19.00
2023-01-11T08:48:16.417Z,16.77
2023-01-11T08:50:46.344Z,39.17
2023-01-11T08:53:16.026Z,36.10
2023-01-11T08:55:44.716Z,14.57
2023-01-11T08:58:13.193Z,13.27
2023-01-11T09:00:41.673Z,15.13
2023-01-11T09:03:11.913Z,21.03
2023-01-11T09:05:41.012Z,15.77
2023-01-11T09:08:11.069Z,13.50
2023-01-11T09:10:39.872Z,16.60
2023-01-11T09:13:08.464Z,18.00
2023-01-11T09:15:36.976Z,13.80
2023-01-11T09:18:05.899Z,17.27
2023-01-11T09:20:35.908Z,13.83
2023-01-11T09:23:09.365Z,34.90
2023-01-11T09:25:39.389Z,43.73
2023-01-11T09:28:07.901Z,37.77
2023-01-11T09:30:38.932Z,37.23
2023-01-11T09:33:08.098Z,19.77
2023-01-11T09:35:38.750Z,18.90
2023-01-11T09:38:07.322Z,10.80
2023-01-11T09:40:46.055Z,7.80
2023-01-11T09:43:16.823Z,8.07
2023-01-11T09:45:46.907Z,9.10
2023-01-11T09:48:26.993Z,6.90
2023-01-11T09:50:55.742Z,9.60
2023-01-11T09:53:31.620Z,8.00
2023-01-11T09:56:05.065Z,6.23
2023-01-11T09:58:49.839Z,9.27
2023-01-11T10:01:21.795Z,6.80
2023-01-11T10:04:16.499Z,7.50
2023-01-11T10:06:55.246Z,14.53
2023-01-11T10:18:42.690Z,13.97
2023-01-11T10:19:12.223Z,9.27
2023-01-11T10:21:41.024Z,5.67
2023-01-11T10:24:16.410Z,5.37
2023-01-11T10:26:45.339Z,5.10
2023-01-11T10:29:38.775Z,7.83
2023-01-11T10:32:34.320Z,7.20
2023-01-11T10:35:24.391Z,8.53
2023-01-11T10:38:10.275Z,7.60
2023-01-11T10:40:59.049Z,6.17
2023-01-11T10:43:29.429Z,4.97
2023-01-11T10:46:02.437Z,5.27
2023-01-11T10:48:34.784Z,3.47
2023-01-11T10:51:10.657Z,5.17
2023-01-11T10:53:43.629Z,4.40
2023-01-11T10:56:21.753Z,3.43
2023-01-11T10:59:07.435Z,3.23
2023-01-11T11:01:50.401Z,4.27
2023-01-11T11:04:42.257Z,3.70
2023-01-11T11:07:14.904Z,3.13
2023-01-11T11:09:48.894Z,5.63
2023-01-11T11:12:20.821Z,4.23
2023-01-11T11:14:57.552Z,4.57
2023-01-11T11:17:31.551Z,5.10
2023-01-11T11:20:00.316Z,4.57
2023-01-11T11:22:28.933Z,6.00
2023-01-11T11:25:01.531Z,5.70
2023-01-11T11:27:33.129Z,6.07
2023-01-11T11:30:01.770Z,5.07
2023-01-11T11:32:36.383Z,5.27
2023-01-11T11:35:07.791Z,5.20
2023-01-11T11:37:37.397Z,8.50
2023-01-11T11:40:06.899Z,7.67
2023-01-11T11:42:35.452Z,5.43
2023-01-11T11:45:16.727Z,4.73
2023-01-11T11:48:02.060Z,5.97
2023-01-11T11:50:44.812Z,4.90
2023-01-11T11:53:31.663Z,5.47
2023-01-11T11:56:01.449Z,4.77
2023-01-11T11:58:29.992Z,6.60
2023-01-11T12:00:58.498Z,4.23
2023-01-11T12:03:32.190Z,5.87
2023-01-11T12:06:08.838Z,6.83
2023-01-11T12:08:37.780Z,7.70
2023-01-11T12:11:08.421Z,6.60
2023-01-11T12:13:38.642Z,6.30
2023-01-11T12:16:09.155Z,6.27
2023-01-11T12:18:43.412Z,7.17
2023-01-11T12:21:20.039Z,7.20
2023-01-11T12:23:48.944Z,6.20
2023-01-11T12:26:23.113Z,6.73
2023-01-11T12:29:03.235Z,6.13
2023-01-11T12:31:37.995Z,5.27
2023-01-11T12:34:14.805Z,6.37
2023-01-11T12:36:49.753Z,8.97
2023-01-11T12:39:24.419Z,6.40
2023-01-11T12:42:04.408Z,6.27
2023-01-11T12:44:44.652Z,5.87
2023-01-11T12:47:50.797Z,7.07
2023-01-11T12:50:24.979Z,4.40
2023-01-11T12:53:12.599Z,35.90
2023-01-11T12:55:55.307Z,33.47
2023-01-11T12:58:29.357Z,13.93
2023-01-11T13:01:13.841Z,10.33
2023-01-11T13:04:12.127Z,10.80
2023-01-11T13:06:45.031Z,6.83
2023-01-11T13:09:23.243Z,6.70
2023-01-11T13:11:58.382Z,9.43
2023-01-11T13:14:54.661Z,7.27
2023-01-11T13:17:30.474Z,7.37
2023-01-11T13:20:08.240Z,8.17
2023-01-11T13:22:40.701Z,7.43
2023-01-11T13:25:16.951Z,9.70
2023-01-11T13:27:46.758Z,7.47
2023-01-11T13:30:17.912Z,7.23
2023-01-11T13:32:54.925Z,5.10
2023-01-11T13:35:36.759Z,4.47
2023-01-11T13:38:13.283Z,6.27
2023-01-11T13:40:45.992Z,5.97
2023-01-11T13:43:19.913Z,9.43
2023-01-11T13:45:51.807Z,13.67
2023-01-11T13:48:25.391Z,13.00
2023-01-11T13:50:57.894Z,9.30
2023-01-11T13:53:33.638Z,6.37
2023-01-11T13:56:08.028Z,8.50
2023-01-11T13:58:39.850Z,51.10
2023-01-11T14:01:11.916Z,27.73
2023-01-11T14:03:45.987Z,12.80
2023-01-11T14:06:34.611Z,6.53
2023-01-11T14:09:16.763Z,5.20
2023-01-11T14:11:51.241Z,6.90
2023-01-11T14:14:50.700Z,9.60
2023-01-11T14:17:28.645Z,13.17
2023-01-11T14:20:04.087Z,10.67
2023-01-11T14:22:37.803Z,7.50
2023-01-11T14:25:15.222Z,8.33
2023-01-11T14:28:02.351Z,5.03
2023-01-11T14:30:58.413Z,5.93
2023-01-11T14:34:02.677Z,8.70
2023-01-11T14:36:54.885Z,11.70
2023-01-11T14:40:03.651Z,9.47
2023-01-11T14:43:07.143Z,10.00
2023-01-11T14:45:50.534Z,13.13
2023-01-11T14:48:25.723Z,9.57
2023-01-11T14:51:10.786Z,11.40
2023-01-11T14:53:42.405Z,14.70
2023-01-11T14:56:40.631Z,14.50
2023-01-11T14:59:33.379Z,11.60
2023-01-11T15:02:25.420Z,12.93
2023-01-11T15:05:13.590Z,16.00
2023-01-11T15:07:43.271Z,11.17
2023-01-11T15:10:41.899Z,11.87
2023-01-11T15:13:15.082Z,9.97
2023-01-11T15:16:02.762Z,10.73
2023-01-11T15:18:31.650Z,14.77
2023-01-11T15:21:04.907Z,11.37
2023-01-11T15:23:36.571Z,10.20
2023-01-11T15:26:07.976Z,9.53
2023-01-11T15:28:45.851Z,8.33
2023-01-11T15:31:39.100Z,9.13
2023-01-11T15:34:25.142Z,11.30
2023-01-11T15:37:36.559Z,36.10
2023-01-11T15:40:11.048Z,12.83
2023-01-11T15:43:02.706Z,10.40
2023-01-11T15:46:07.658Z,11.13
2023-01-11T15:48:49.801Z,7.97
2023-01-11T15:51:34.407Z,7.70
2023-01-11T15:54:16.842Z,9.37
2023-01-11T15:57:08.197Z,9.40
2023-01-11T16:00:08.950Z,15.53
2023-01-11T16:03:03.836Z,16.45
2023-01-11T16:05:36.401Z,12.03
2023-01-11T16:08:15.606Z,10.47
2023-01-11T16:10:56.822Z,10.00
2023-01-11T16:13:32.423Z,7.23
2023-01-11T16:16:08.462Z,8.77
2023-01-11T16:18:40.830Z,7.43
2023-01-11T16:21:13.857Z,8.90
2023-01-11T16:23:42.701Z,8.93
2023-01-11T16:26:16.732Z,10.70
2023-01-11T16:28:53.711Z,11.00
2023-01-11T16:31:22.439Z,9.70
2023-01-11T16:33:51.938Z,9.60
2023-01-11T16:36:23.173Z,10.47
2023-01-11T16:38:57.524Z,8.27
2023-01-11T16:41:27.694Z,8.63
2023-01-11T16:44:01.435Z,7.73
2023-01-11T16:47:06.185Z,17.83
2023-01-11T16:49:34.774Z,21.57
2023-01-11T16:52:39.004Z,9.00
2023-01-11T16:55:40.091Z,9.80
2023-01-11T16:58:20.284Z,7.47
2023-01-11T17:00:58.865Z,8.77
2023-01-11T17:03:29.427Z,10.10
2023-01-11T17:06:16.287Z,10.40
2023-01-11T17:08:47.825Z,9.87
2023-01-11T17:11:25.037Z,13.00
2023-01-11T17:14:26.618Z,16.00
2023-01-11T17:16:59.713Z,12.97
2023-01-11T17:19:30.410Z,13.97
2023-01-11T17:22:04.480Z,19.13
2023-01-11T17:24:37.582Z,18.43
2023-01-11T17:27:09.067Z,16.90
2023-01-11T17:29:40.432Z,17.63
2023-01-11T17:32:14.800Z,12.27
2023-01-11T17:34:44.176Z,13.73
2023-01-11T17:37:15.088Z,16.00
2023-01-11T17:39:48.312Z,17.80
2023-01-11T17:42:34.723Z,14.40
2023-01-11T17:45:15.590Z,15.00
2023-01-11T17:47:46.849Z,14.30
2023-01-11T17:50:22.239Z,13.37
2023-01-11T17:52:55.003Z,12.27
2023-01-11T17:55:26.495Z,11.37
2023-01-11T17:58:17.390Z,13.20
2023-01-11T18:01:13.797Z,14.37
2023-01-11T18:03:43.698Z,15.77
2023-01-11T18:06:14.118Z,13.27
2023-01-11T18:08:48.014Z,15.97
2023-01-11T18:11:25.628Z,10.40
2023-01-11T18:13:55.439Z,11.50
2023-01-11T18:16:24.603Z,11.17
2023-01-11T18:18:54.387Z,13.37
2023-01-11T18:21:46.207Z,11.97
2023-01-11T18:24:34.834Z,9.87
2023-01-11T18:27:20.206Z,15.43
2023-01-11T18:29:50.982Z,18.27
2023-01-11T18:32:19.998Z,16.70
2023-01-11T18:34:50.562Z,19.63
2023-01-11T18:37:19.376Z,21.20
2023-01-11T18:39:47.932Z,21.50
2023-01-11T18:42:20.282Z,19.63
2023-01-11T18:44:49.724Z,16.20
2023-01-11T18:47:20.833Z,18.27
2023-01-11T18:49:49.744Z,19.03
2023-01-11T18:52:18.685Z,26.67
2023-01-11T18:54:47.917Z,26.23
2023-01-11T18:57:21.578Z,25.20
2023-01-11T18:59:52.283Z,24.50
2023-01-11T19:02:24.269Z,21.90
2023-01-11T19:04:54.205Z,21.57
2023-01-11T19:07:24.097Z,21.37
2023-01-11T19:09:54.895Z,22.43
2023-01-11T19:12:24.072Z,24.43
2023-01-11T19:14:53.959Z,23.20
2023-01-11T19:17:22.571Z,30.67
2023-01-11T19:19:51.135Z,32.37
2023-01-11T19:22:23.278Z,29.50
2023-01-11T19:24:54.880Z,29.17
2023-01-11T19:27:23.637Z,29.33
2023-01-11T19:29:54.014Z,38.90
2023-01-11T19:32:25.382Z,35.83
2023-01-11T19:34:58.179Z,29.07
2023-01-11T19:37:27.394Z,23.47
2023-01-11T19:39:56.056Z,21.40
2023-01-11T19:42:24.855Z,24.40
2023-01-11T19:44:54.938Z,24.30
2023-01-11T19:47:23.636Z,20.83
2023-01-11T19:49:56.472Z,17.97
2023-01-11T19:52:25.053Z,19.73
2023-01-11T19:54:55.015Z,19.37
2023-01-11T19:57:23.925Z,21.47
2023-01-11T19:59:52.516Z,21.10
2023-01-11T20:02:23.054Z,22.43
2023-01-11T20:04:51.763Z,26.23
2023-01-11T20:07:20.483Z,35.23
2023-01-11T20:09:49.108Z,24.93
2023-01-11T20:12:18.051Z,20.60
2023-01-11T20:14:46.753Z,18.63
2023-01-11T20:17:19.182Z,23.13
2023-01-11T20:19:54.502Z,23.30
2023-01-11T20:22:23.700Z,22.67
2023-01-11T20:24:52.503Z,19.53
2023-01-11T20:27:21.080Z,17.83
2023-01-11T20:29:50.882Z,16.77
2023-01-11T20:32:39.717Z,16.97
2023-01-11T20:35:11.692Z,20.97
2023-01-11T20:37:40.607Z,20.77
2023-01-11T20:40:11.840Z,21.90
2023-01-11T20:42:44.057Z,20.90
2023-01-11T20:45:13.262Z,28.87
2023-01-11T20:47:41.896Z,21.73
2023-01-11T20:50:12.564Z,24.40
2023-01-11T20:52:41.989Z,23.23
2023-01-11T20:55:11.573Z,27.10
2023-01-11T20:57:41.029Z,22.13
2023-01-11T21:02:38.710Z,22.50
2023-01-11T21:05:08.492Z,19.23
2023-01-11T21:07:38.603Z,18.67
2023-01-11T21:10:09.079Z,21.83
2023-01-11T21:15:08.724Z,17.73
2023-01-11T21:17:37.627Z,21.60
2023-01-11T21:20:07.368Z,21.00
2023-01-11T21:22:35.845Z,18.80
2023-01-11T21:25:06.474Z,19.00
2023-01-11T21:27:34.992Z,17.57
2023-01-11T21:30:03.575Z,20.37
2023-01-11T21:32:32.255Z,20.40
2023-01-11T21:35:00.788Z,22.97
2023-01-11T21:37:30.114Z,20.17
2023-01-11T21:39:58.707Z,18.93
2023-01-11T21:42:28.648Z,18.67
2023-01-11T21:44:57.236Z,20.67
2023-01-11T21:47:25.722Z,19.93
2023-01-11T21:49:54.230Z,23.20
2023-01-11T21:52:22.786Z,20.03
2023-01-11T21:54:52.565Z,19.90
2023-01-11T21:57:21.299Z,19.70
2023-01-11T21:59:51.365Z,22.30
2023-01-11T22:02:19.981Z,21.30
2023-01-11T22:04:48.595Z,22.57
2023-01-11T22:07:17.119Z,22.17
2023-01-11T22:10:03.464Z,22.63
2023-01-11T22:12:33.731Z,18.97
2023-01-11T22:15:03.875Z,17.97
2023-01-11T22:17:32.427Z,18.30
2023-01-11T22:20:01.033Z,20.73
2023-01-11T22:22:30.046Z,22.70
2023-01-11T22:24:58.693Z,19.67
2023-01-11T22:27:27.195Z,20.40
2023-01-11T22:29:55.709Z,20.43
2023-01-11T22:32:26.021Z,19.67
2023-01-11T22:34:54.631Z,20.40
2023-01-11T22:37:23.163Z,20.37
2023-01-11T22:39:51.667Z,18.03
2023-01-11T22:42:20.279Z,17.83
2023-01-11T22:44:49.738Z,18.20
2023-01-11T22:47:18.288Z,20.47
2023-01-11T22:49:53.765Z,18.73
2023-01-11T22:52:23.046Z,17.90
2023-01-11T22:54:51.754Z,20.00
2023-01-11T22:57:20.377Z,25.37
2023-01-11T22:59:48.924Z,27.07
2023-01-11T23:02:17.538Z,26.33
2023-01-11T23:04:47.461Z,26.90
2023-01-11T23:07:16.011Z,26.87
2023-01-11T23:09:44.545Z,29.13
2023-01-11T23:12:30.403Z,23.20
2023-01-11T23:14:58.999Z,24.77
2023-01-11T23:17:27.633Z,22.40
2023-01-11T23:19:57.518Z,21.30
2023-01-11T23:22:26.036Z,21.67
2023-01-11T23:24:54.545Z,18.97
2023-01-11T23:27:23.037Z,19.10
2023-01-11T23:29:51.550Z,19.27
2023-01-11T23:32:20.181Z,22.63
2023-01-11T23:34:48.747Z,19.27
2023-01-11T23:37:18.843Z,20.70
2023-01-11T23:39:47.366Z,20.90
2023-01-11T23:42:26.751Z,21.00
2023-01-11T23:44:55.539Z,21.80
2023-01-11T23:47:25.204Z,20.87
2023-01-11T23:49:55.113Z,24.50
2023-01-11T23:52:26.573Z,21.43
2023-01-11T23:54:55.635Z,20.27
2023-01-11T23:57:25.283Z,21.60
2023-01-11T23:59:54.060Z,19.07
